sensor_id;sensor_type;location;lat;lon;timestamp;pressure;altitude;pressure_sealevel;temperature;humidity
75008;BME280;63554;48.940;12.050;2023-04-01T00:01:03;96018.94;;;7.02;80.26
75008;BME280;63554;48.940;12.050;2023-04-01T00:05:08;96025.94;;;7.03;80.14
75008;BME280;63554;48.940;12.050;2023-04-01T00:09:13;96022.66;;;7.01;79.11
75008;BME280;63554;48.940;12.050;2023-04-01T00:13:16;96023.25;;;7.03;79.58
75008;BME280;63554;48.940;12.050;2023-04-01T00:17:18;96021.00;;;7.00;79.38
75008;BME280;63554;48.940;12.050;2023-04-01T00:21:21;96019.84;;;6.96;79.11
75008;BME280;63554;48.940;12.050;2023-04-01T00:25:26;96011.44;;;6.92;79.58
75008;BME280;63554;48.940;12.050;2023-04-01T00:29:28;96016.81;;;6.92;79.55
75008;BME280;63554;48.940;12.050;2023-04-01T00:33:32;96013.88;;;6.93;79.31
75008;BME280;63554;48.940;12.050;2023-04-01T00:37:35;96030.16;;;6.99;78.55
75008;BME280;63554;48.940;12.050;2023-04-01T00:41:40;96012.13;;;6.99;78.86
75008;BME280;63554;48.940;12.050;2023-04-01T00:45:44;96009.91;;;6.96;79.20
75008;BME280;63554;48.940;12.050;2023-04-01T00:49:50;96004.75;;;6.95;78.63
75008;BME280;63554;48.940;12.050;2023-04-01T00:53:55;96008.84;;;6.97;78.62
75008;BME280;63554;48.940;12.050;2023-04-01T00:58:02;96004.75;;;6.95;78.64
75008;BME280;63554;48.940;12.050;2023-04-01T01:02:09;96010.13;;;6.95;78.82
75008;BME280;63554;48.940;12.050;2023-04-01T01:06:29;96009.06;;;6.96;78.50
75008;BME280;63554;48.940;12.050;2023-04-01T01:10:42;96006.63;;;6.94;78.73
75008;BME280;63554;48.940;12.050;2023-04-01T01:14:54;96001.94;;;6.89;78.63
75008;BME280;63554;48.940;12.050;2023-04-01T01:19:03;96008.38;;;6.88;78.65
75008;BME280;63554;48.940;12.050;2023-04-01T01:28:08;96007.91;;;6.91;78.55
75008;BME280;63554;48.940;12.050;2023-04-01T01:36:44;96008.41;;;7.00;77.91
75008;BME280;63554;48.940;12.050;2023-04-01T01:40:51;95996.47;;;6.96;78.16
75008;BME280;63554;48.940;12.050;2023-04-01T01:44:56;95994.81;;;6.95;78.09
75008;BME280;63554;48.940;12.050;2023-04-01T01:49:03;96003.09;;;6.93;77.77
75008;BME280;63554;48.940;12.050;2023-04-01T01:53:11;96003.94;;;6.94;78.47
75008;BME280;63554;48.940;12.050;2023-04-01T01:57:17;96004.75;;;6.95;78.47
75008;BME280;63554;48.940;12.050;2023-04-01T02:01:23;95992.34;;;6.93;78.50
75008;BME280;63554;48.940;12.050;2023-04-01T02:05:28;95987.22;;;6.92;78.62
75008;BME280;63554;48.940;12.050;2023-04-01T02:09:34;95998.56;;;6.94;79.15
75008;BME280;63554;48.940;12.050;2023-04-01T02:13:40;96007.91;;;6.91;79.13
75008;BME280;63554;48.940;12.050;2023-04-01T02:17:45;96000.31;;;6.88;79.10
75008;BME280;63554;48.940;12.050;2023-04-01T02:21:53;95999.72;;;6.86;79.41
75008;BME280;63554;48.940;12.050;2023-04-01T02:25:59;96006.94;;;6.86;79.11
75008;BME280;63554;48.940;12.050;2023-04-01T02:30:03;96010.59;;;6.91;79.31
75008;BME280;63554;48.940;12.050;2023-04-01T02:34:06;96000.31;;;6.88;79.66
75008;BME280;63554;48.940;12.050;2023-04-01T02:38:09;96003.44;;;6.85;79.66
75008;BME280;63554;48.940;12.050;2023-04-01T02:42:13;96006.59;;;6.82;80.25
75008;BME280;63554;48.940;12.050;2023-04-01T02:46:16;96026.47;;;6.81;80.42
75008;BME280;63554;48.940;12.050;2023-04-01T02:50:19;96016.63;;;6.75;80.71
75008;BME280;63554;48.940;12.050;2023-04-01T02:54:21;96027.16;;;6.77;80.41
75008;BME280;63554;48.940;12.050;2023-04-01T02:58:25;96033.78;;;6.74;80.69
75008;BME280;63554;48.940;12.050;2023-04-01T03:02:28;96030.75;;;6.70;80.37
75008;BME280;63554;48.940;12.050;2023-04-01T03:06:31;96032.03;;;6.68;80.82
75008;BME280;63554;48.940;12.050;2023-04-01T03:10:34;96028.97;;;6.64;80.68
75008;BME280;63554;48.940;12.050;2023-04-01T03:14:38;96036.91;;;6.59;80.88
75008;BME280;63554;48.940;12.050;2023-04-01T03:18:41;96039.81;;;6.58;81.13
75008;BME280;63554;48.940;12.050;2023-04-01T03:22:43;96038.63;;;6.53;81.23
75008;BME280;63554;48.940;12.050;2023-04-01T03:26:47;96041.16;;;6.48;81.25
75008;BME280;63554;48.940;12.050;2023-04-01T03:30:51;96056.78;;;6.40;81.79
75008;BME280;63554;48.940;12.050;2023-04-01T03:34:53;96044.63;;;6.37;81.60
75008;BME280;63554;48.940;12.050;2023-04-01T03:38:56;96041.19;;;6.30;81.64
75008;BME280;63554;48.940;12.050;2023-04-01T03:42:59;96040.59;;;6.28;81.54
75008;BME280;63554;48.940;12.050;2023-04-01T03:47:03;96055.66;;;6.29;81.80
75008;BME280;63554;48.940;12.050;2023-04-01T03:51:06;96049.94;;;6.25;81.88
75008;BME280;63554;48.940;12.050;2023-04-01T03:55:09;96059.84;;;6.25;81.94
75008;BME280;63554;48.940;12.050;2023-04-01T03:59:12;96058.44;;;6.22;81.95
75008;BME280;63554;48.940;12.050;2023-04-01T04:03:16;96057.25;;;6.18;82.12
75008;BME280;63554;48.940;12.050;2023-04-01T04:07:19;96064.03;;;6.21;82.13
75008;BME280;63554;48.940;12.050;2023-04-01T04:11:22;96061.81;;;6.18;82.18
75008;BME280;63554;48.940;12.050;2023-04-01T04:15:25;96052.78;;;6.12;82.34
75008;BME280;63554;48.940;12.050;2023-04-01T04:19:32;96068.69;;;6.13;82.33
75008;BME280;63554;48.940;12.050;2023-04-01T04:23:36;96065.53;;;6.17;82.87
75008;BME280;63554;48.940;12.050;2023-04-01T04:27:38;96069.88;;;6.18;82.81
75008;BME280;63554;48.940;12.050;2023-04-01T04:31:41;96068.00;;;6.18;82.94
75008;BME280;63554;48.940;12.050;2023-04-01T04:35:46;96072.09;;;6.21;83.64
75008;BME280;63554;48.940;12.050;2023-04-01T04:39:49;96080.00;;;6.16;83.50
75008;BME280;63554;48.940;12.050;2023-04-01T04:43:53;96077.47;;;6.21;83.57
75008;BME280;63554;48.940;12.050;2023-04-01T04:47:56;96079.34;;;6.20;83.02
75008;BME280;63554;48.940;12.050;2023-04-01T04:52:00;96076.44;;;6.22;82.91
75008;BME280;63554;48.940;12.050;2023-04-01T04:56:03;96070.59;;;6.25;82.79
75008;BME280;63554;48.940;12.050;2023-04-01T05:00:07;96088.50;;;6.31;81.63
75008;BME280;63554;48.940;12.050;2023-04-01T05:04:11;96077.53;;;6.32;81.85
75008;BME280;63554;48.940;12.050;2023-04-01T05:08:15;96082.47;;;6.36;82.01
75008;BME280;63554;48.940;12.050;2023-04-01T05:12:18;96080.00;;;6.34;81.51
75008;BME280;63554;48.940;12.050;2023-04-01T05:16:20;96092.41;;;6.35;81.99
75008;BME280;63554;48.940;12.050;2023-04-01T05:20:23;96092.63;;;6.33;81.30
75008;BME280;63554;48.940;12.050;2023-04-01T05:24:27;96097.09;;;6.40;81.06
75008;BME280;63554;48.940;12.050;2023-04-01T05:28:30;96099.78;;;6.40;81.41
75008;BME280;63554;48.940;12.050;2023-04-01T05:32:32;96097.47;;;6.43;80.54
75008;BME280;63554;48.940;12.050;2023-04-01T05:36:36;96093.41;;;6.52;80.20
75008;BME280;63554;48.940;12.050;2023-04-01T05:40:40;96092.53;;;6.59;79.28
75008;BME280;63554;48.940;12.050;2023-04-01T05:44:43;96093.72;;;6.63;79.03
75008;BME280;63554;48.940;12.050;2023-04-01T05:48:45;96113.03;;;6.71;78.24
75008;BME280;63554;48.940;12.050;2023-04-01T05:52:48;96105.34;;;6.75;78.04
75008;BME280;63554;48.940;12.050;2023-04-01T05:56:52;96119.97;;;6.79;77.61
75008;BME280;63554;48.940;12.050;2023-04-01T06:01:00;96114.97;;;6.83;77.43
75008;BME280;63554;48.940;12.050;2023-04-01T06:05:16;96119.66;;;6.87;77.41
75008;BME280;63554;48.940;12.050;2023-04-01T06:09:25;96114.88;;;6.89;77.00
75008;BME280;63554;48.940;12.050;2023-04-01T06:13:42;96120.63;;;6.93;76.22
75008;BME280;63554;48.940;12.050;2023-04-01T06:18:01;96128.47;;;6.95;75.84
75008;BME280;63554;48.940;12.050;2023-04-01T06:26:46;96111.19;;;7.02;76.28
75008;BME280;63554;48.940;12.050;2023-04-01T06:30:57;96107.22;;;7.05;75.15
75008;BME280;63554;48.940;12.050;2023-04-01T06:35:28;96117.53;;;7.08;75.43
75008;BME280;63554;48.940;12.050;2023-04-01T06:39:55;96115.34;;;7.17;75.83
75008;BME280;63554;48.940;12.050;2023-04-01T06:44:11;96125.66;;;7.20;75.34
75008;BME280;63554;48.940;12.050;2023-04-01T06:48:34;96123.69;;;7.27;75.57
75008;BME280;63554;48.940;12.050;2023-04-01T06:52:45;96128.28;;;7.38;75.46
75008;BME280;63554;48.940;12.050;2023-04-01T06:56:54;96114.47;;;7.46;74.63
75008;BME280;63554;48.940;12.050;2023-04-01T07:01:03;96127.38;;;7.56;74.83
75008;BME280;63554;48.940;12.050;2023-04-01T07:05:08;96113.50;;;7.71;74.98
75008;BME280;63554;48.940;12.050;2023-04-01T07:09:16;96118.53;;;7.79;74.01
75008;BME280;63554;48.940;12.050;2023-04-01T07:13:24;96112.69;;;7.82;74.48
75008;BME280;63554;48.940;12.050;2023-04-01T07:17:30;96115.63;;;7.92;73.88
75008;BME280;63554;48.940;12.050;2023-04-01T07:21:41;96115.72;;;7.98;73.40
75008;BME280;63554;48.940;12.050;2023-04-01T07:25:47;96125.91;;;7.96;73.30
75008;BME280;63554;48.940;12.050;2023-04-01T07:29:52;96107.19;;;8.01;73.94
75008;BME280;63554;48.940;12.050;2023-04-01T07:34:04;96111.28;;;8.15;72.17
75008;BME280;63554;48.940;12.050;2023-04-01T07:38:22;96134.69;;;8.38;71.19
75008;BME280;63554;48.940;12.050;2023-04-01T07:42:37;96118.88;;;8.54;70.54
75008;BME280;63554;48.940;12.050;2023-04-01T07:46:53;96123.81;;;8.57;70.82
75008;BME280;63554;48.940;12.050;2023-04-01T07:51:01;96115.44;;;8.70;70.07
75008;BME280;63554;48.940;12.050;2023-04-01T07:55:09;96116.63;;;9.03;69.79
75008;BME280;63554;48.940;12.050;2023-04-01T07:59:19;96126.22;;;9.10;68.58
75008;BME280;63554;48.940;12.050;2023-04-01T08:03:33;96129.59;;;8.89;69.37
75008;BME280;63554;48.940;12.050;2023-04-01T08:07:45;96113.84;;;8.98;69.52
75008;BME280;63554;48.940;12.050;2023-04-01T08:12:00;96135.34;;;8.93;68.24
75008;BME280;63554;48.940;12.050;2023-04-01T08:16:10;96115.72;;;8.97;67.71
75008;BME280;63554;48.940;12.050;2023-04-01T08:20:27;96114.69;;;9.15;67.35
75008;BME280;63554;48.940;12.050;2023-04-01T08:24:35;96121.31;;;9.07;66.41
75008;BME280;63554;48.940;12.050;2023-04-01T08:28:52;96110.44;;;9.48;65.86
75008;BME280;63554;48.940;12.050;2023-04-01T08:33:00;96123.38;;;9.46;65.07
75008;BME280;63554;48.940;12.050;2023-04-01T08:37:11;96105.06;;;9.65;65.13
75008;BME280;63554;48.940;12.050;2023-04-01T08:41:44;96112.00;;;9.44;66.22
75008;BME280;63554;48.940;12.050;2023-04-01T08:46:04;96082.00;;;9.74;65.53
75008;BME280;63554;48.940;12.050;2023-04-01T08:50:34;96079.34;;;9.96;64.65
75008;BME280;63554;48.940;12.050;2023-04-01T08:54:49;96090.91;;;9.75;65.38
75008;BME280;63554;48.940;12.050;2023-04-01T08:59:14;96100.25;;;9.67;65.17
75008;BME280;63554;48.940;12.050;2023-04-01T09:03:44;96096.94;;;9.48;65.21
75008;BME280;63554;48.940;12.050;2023-04-01T09:08:02;96097.50;;;9.50;64.85
75008;BME280;63554;48.940;12.050;2023-04-01T09:12:19;96108.66;;;9.54;65.40
75008;BME280;63554;48.940;12.050;2023-04-01T09:16:53;96095.72;;;9.56;64.17
75008;BME280;63554;48.940;12.050;2023-04-01T09:21:24;96090.81;;;9.53;64.06
75008;BME280;63554;48.940;12.050;2023-04-01T09:25:43;96099.75;;;9.53;64.43
75008;BME280;63554;48.940;12.050;2023-04-01T09:30:05;96116.34;;;9.62;64.07
75008;BME280;63554;48.940;12.050;2023-04-01T09:34:27;96091.41;;;9.55;63.91
75008;BME280;63554;48.940;12.050;2023-04-01T09:38:48;96102.59;;;9.63;64.07
75008;BME280;63554;48.940;12.050;2023-04-01T09:47:29;96101.63;;;9.86;62.95
75008;BME280;63554;48.940;12.050;2023-04-01T09:51:39;96090.72;;;9.98;62.72
75008;BME280;63554;48.940;12.050;2023-04-01T10:05:57;96102.69;;;10.02;63.09
75008;BME280;63554;48.940;12.050;2023-04-01T10:10:40;96104.22;;;10.15;64.33
75008;BME280;63554;48.940;12.050;2023-04-01T10:15:25;96093.44;;;9.81;63.78
75008;BME280;63554;48.940;12.050;2023-04-01T10:19:55;96086.22;;;9.87;64.78
75008;BME280;63554;48.940;12.050;2023-04-01T10:29:12;96084.19;;;9.77;65.44
75008;BME280;63554;48.940;12.050;2023-04-01T10:43:33;96081.28;;;10.18;63.82
75008;BME280;63554;48.940;12.050;2023-04-01T10:48:21;96071.63;;;10.05;63.47
75008;BME280;63554;48.940;12.050;2023-04-01T10:52:57;96070.81;;;10.21;63.45
75008;BME280;63554;48.940;12.050;2023-04-01T10:57:19;96073.81;;;10.25;63.81
75008;BME280;63554;48.940;12.050;2023-04-01T11:02:02;96071.22;;;10.30;64.29
75008;BME280;63554;48.940;12.050;2023-04-01T11:06:47;96073.81;;;10.25;63.92
75008;BME280;63554;48.940;12.050;2023-04-01T11:11:42;96065.56;;;10.32;63.72
75008;BME280;63554;48.940;12.050;2023-04-01T11:16:26;96064.63;;;10.43;63.65
75008;BME280;63554;48.940;12.050;2023-04-01T11:20:59;96066.00;;;10.45;65.62
75008;BME280;63554;48.940;12.050;2023-04-01T11:25:36;96059.28;;;10.48;66.68
75008;BME280;63554;48.940;12.050;2023-04-01T11:29:56;96072.66;;;10.21;67.92
75008;BME280;63554;48.940;12.050;2023-04-01T11:34:09;96060.78;;;9.83;68.69
75008;BME280;63554;48.940;12.050;2023-04-01T11:38:35;96105.72;;;9.72;71.72
75008;BME280;63554;48.940;12.050;2023-04-01T11:42:47;96102.97;;;9.38;73.30
75008;BME280;63554;48.940;12.050;2023-04-01T11:47:07;96108.25;;;9.16;74.74
75008;BME280;63554;48.940;12.050;2023-04-01T11:51:50;96103.56;;;8.83;76.24
75008;BME280;63554;48.940;12.050;2023-04-01T11:56:11;96107.63;;;8.68;79.38
75008;BME280;63554;48.940;12.050;2023-04-01T12:00:50;96109.41;;;8.51;79.12
75008;BME280;63554;48.940;12.050;2023-04-01T12:05:32;96118.44;;;8.33;80.15
75008;BME280;63554;48.940;12.050;2023-04-01T12:09:47;96116.91;;;8.14;80.50
75008;BME280;63554;48.940;12.050;2023-04-01T12:13:57;96113.97;;;8.15;81.08
75008;BME280;63554;48.940;12.050;2023-04-01T12:18:10;96113.50;;;8.18;81.71
75008;BME280;63554;48.940;12.050;2023-04-01T12:22:36;96116.91;;;8.14;81.47
75008;BME280;63554;48.940;12.050;2023-04-01T12:26:49;96113.16;;;8.15;82.01
75008;BME280;63554;48.940;12.050;2023-04-01T12:31:07;96119.25;;;8.10;82.32
75008;BME280;63554;48.940;12.050;2023-04-01T12:35:20;96125.22;;;8.12;82.65
75008;BME280;63554;48.940;12.050;2023-04-01T12:39:44;96113.72;;;8.17;83.16
75008;BME280;63554;48.940;12.050;2023-04-01T12:44:12;96114.78;;;8.27;83.21
75008;BME280;63554;48.940;12.050;2023-04-01T12:48:45;96111.16;;;8.22;82.43
75008;BME280;63554;48.940;12.050;2023-04-01T12:53:06;96122.97;;;8.21;82.16
75008;BME280;63554;48.940;12.050;2023-04-01T12:57:23;96108.56;;;8.15;83.22
75008;BME280;63554;48.940;12.050;2023-04-01T13:06:31;96111.63;;;7.95;84.25
75008;BME280;63554;48.940;12.050;2023-04-01T13:10:54;96120.06;;;7.99;83.79
75008;BME280;63554;48.940;12.050;2023-04-01T13:15:20;96106.72;;;7.92;83.24
75008;BME280;63554;48.940;12.050;2023-04-01T13:19:29;96138.13;;;7.98;83.60
75008;BME280;63554;48.940;12.050;2023-04-01T13:23:43;96124.63;;;7.98;84.33
75008;BME280;63554;48.940;12.050;2023-04-01T13:27:51;96127.91;;;8.00;83.05
75008;BME280;63554;48.940;12.050;2023-04-01T13:32:10;96119.59;;;8.14;84.45
75008;BME280;63554;48.940;12.050;2023-04-01T13:36:21;96124.75;;;8.15;83.99
75008;BME280;63554;48.940;12.050;2023-04-01T13:40:38;96135.41;;;8.10;84.59
75008;BME280;63554;48.940;12.050;2023-04-01T13:45:00;96141.63;;;8.10;84.16
75008;BME280;63554;48.940;12.050;2023-04-01T13:53:52;96131.31;;;8.07;84.08
75008;BME280;63554;48.940;12.050;2023-04-01T14:02:44;96131.06;;;7.97;84.89
75008;BME280;63554;48.940;12.050;2023-04-01T14:06:57;96136.22;;;8.10;85.87
75008;BME280;63554;48.940;12.050;2023-04-01T14:11:13;96137.63;;;8.13;86.26
75008;BME280;63554;48.940;12.050;2023-04-01T14:15:39;96133.31;;;8.24;86.00
75008;BME280;63554;48.940;12.050;2023-04-01T14:19:59;96137.03;;;8.23;85.82
75008;BME280;63554;48.940;12.050;2023-04-01T14:24:22;96141.97;;;8.26;86.48
75008;BME280;63554;48.940;12.050;2023-04-01T14:28:31;96146.06;;;8.28;86.29
75008;BME280;63554;48.940;12.050;2023-04-01T14:32:45;96135.28;;;8.28;86.17
75008;BME280;63554;48.940;12.050;2023-04-01T14:37:15;96144.91;;;8.36;86.13
75008;BME280;63554;48.940;12.050;2023-04-01T14:41:33;96148.66;;;8.35;84.85
75008;BME280;63554;48.940;12.050;2023-04-01T14:46:04;96143.72;;;8.32;82.97
75008;BME280;63554;48.940;12.050;2023-04-01T14:50:13;96134.47;;;8.28;82.74
75008;BME280;63554;48.940;12.050;2023-04-01T14:54:19;96141.75;;;8.27;84.46
75008;BME280;63554;48.940;12.050;2023-04-01T14:58:31;96136.59;;;8.26;84.48
75008;BME280;63554;48.940;12.050;2023-04-01T15:02:46;96141.25;;;8.30;85.57
75008;BME280;63554;48.940;12.050;2023-04-01T15:07:10;96143.84;;;8.25;84.98
75008;BME280;63554;48.940;12.050;2023-04-01T15:11:25;96150.78;;;8.21;85.20
75008;BME280;63554;48.940;12.050;2023-04-01T15:15:36;96145.47;;;8.26;85.80
75008;BME280;63554;48.940;12.050;2023-04-01T15:19:54;96145.13;;;8.23;85.41
75008;BME280;63554;48.940;12.050;2023-04-01T15:24:07;96139.75;;;8.23;85.16
75008;BME280;63554;48.940;12.050;2023-04-01T15:28:21;96147.81;;;8.35;85.70
75008;BME280;63554;48.940;12.050;2023-04-01T15:32:37;96144.81;;;8.43;84.57
75008;BME280;63554;48.940;12.050;2023-04-01T15:36:45;96153.47;;;8.57;84.10
75008;BME280;63554;48.940;12.050;2023-04-01T15:40:59;96156.19;;;8.57;83.64
75008;BME280;63554;48.940;12.050;2023-04-01T15:45:16;96159.56;;;8.52;83.28
75008;BME280;63554;48.940;12.050;2023-04-01T15:49:31;96159.91;;;8.56;83.75
75008;BME280;63554;48.940;12.050;2023-04-01T15:53:52;96165.88;;;8.58;83.35
75008;BME280;63554;48.940;12.050;2023-04-01T15:58:17;96167.53;;;8.59;82.99
75008;BME280;63554;48.940;12.050;2023-04-01T16:02:31;96169.66;;;8.57;83.08
75008;BME280;63554;48.940;12.050;2023-04-01T16:06:45;96175.88;;;8.57;83.29
75008;BME280;63554;48.940;12.050;2023-04-01T16:11:04;96173.16;;;8.57;83.22
75008;BME280;63554;48.940;12.050;2023-04-01T16:15:21;96177.84;;;8.50;83.73
75008;BME280;63554;48.940;12.050;2023-04-01T16:19:33;96178.63;;;8.39;83.57
75008;BME280;63554;48.940;12.050;2023-04-01T16:23:40;96176.19;;;8.37;82.45
75008;BME280;63554;48.940;12.050;2023-04-01T16:27:50;96171.84;;;8.36;82.25
75008;BME280;63554;48.940;12.050;2023-04-01T16:32:17;96178.81;;;8.44;82.83
75008;BME280;63554;48.940;12.050;2023-04-01T16:36:27;96181.50;;;8.44;82.11
75008;BME280;63554;48.940;12.050;2023-04-01T16:40:40;96184.75;;;8.34;81.56
75008;BME280;63554;48.940;12.050;2023-04-01T16:44:50;96195.97;;;8.31;82.08
75008;BME280;63554;48.940;12.050;2023-04-01T16:49:04;96196.69;;;8.26;82.34
75008;BME280;63554;48.940;12.050;2023-04-01T16:53:17;96196.91;;;8.25;81.57
75008;BME280;63554;48.940;12.050;2023-04-01T16:57:26;96211.69;;;8.22;81.99
75008;BME280;63554;48.940;12.050;2023-04-01T17:01:38;96214.38;;;8.22;81.66
75008;BME280;63554;48.940;12.050;2023-04-01T17:05:57;96211.09;;;8.20;82.69
75008;BME280;63554;48.940;12.050;2023-04-01T17:10:25;96214.84;;;8.31;82.35
75008;BME280;63554;48.940;12.050;2023-04-01T17:14:36;96216.38;;;8.27;82.28
75008;BME280;63554;48.940;12.050;2023-04-01T17:18:52;96216.25;;;8.10;83.25
75008;BME280;63554;48.940;12.050;2023-04-01T17:23:01;96228.41;;;8.01;84.39
75008;BME280;63554;48.940;12.050;2023-04-01T17:27:21;96242.81;;;7.95;84.65
75008;BME280;63554;48.940;12.050;2023-04-01T17:31:40;96236.25;;;7.90;84.87
75008;BME280;63554;48.940;12.050;2023-04-01T17:35:53;96230.28;;;7.88;85.04
75008;BME280;63554;48.940;12.050;2023-04-01T17:40:11;96254.38;;;7.83;85.61
75008;BME280;63554;48.940;12.050;2023-04-01T17:44:29;96253.88;;;7.75;86.08
75008;BME280;63554;48.940;12.050;2023-04-01T17:48:43;96262.41;;;7.71;86.54
75008;BME280;63554;48.940;12.050;2023-04-01T17:53:02;96258.16;;;7.64;86.99
75008;BME280;63554;48.940;12.050;2023-04-01T17:57:30;96259.22;;;7.63;87.82
75008;BME280;63554;48.940;12.050;2023-04-01T18:01:45;96266.47;;;7.62;88.29
75008;BME280;63554;48.940;12.050;2023-04-01T18:06:01;96271.72;;;7.57;88.67
75008;BME280;63554;48.940;12.050;2023-04-01T18:14:44;96271.56;;;7.52;88.89
75008;BME280;63554;48.940;12.050;2023-04-01T18:18:58;96285.63;;;7.54;89.19
75008;BME280;63554;48.940;12.050;2023-04-01T18:23:06;96286.09;;;7.51;89.57
75008;BME280;63554;48.940;12.050;2023-04-01T18:27:17;96296.41;;;7.54;89.65
75008;BME280;63554;48.940;12.050;2023-04-01T18:31:24;96281.97;;;7.48;89.52
75008;BME280;63554;48.940;12.050;2023-04-01T18:35:41;96302.25;;;7.51;89.70
75008;BME280;63554;48.940;12.050;2023-04-01T18:39:49;96301.88;;;7.47;89.72
75008;BME280;63554;48.940;12.050;2023-04-01T18:43:59;96308.06;;;7.48;90.01
75008;BME280;63554;48.940;12.050;2023-04-01T18:48:30;96313.47;;;7.48;89.53
75008;BME280;63554;48.940;12.050;2023-04-01T18:52:38;96320.03;;;7.52;89.53
75008;BME280;63554;48.940;12.050;2023-04-01T18:56:44;96320.50;;;7.49;89.51
75008;BME280;63554;48.940;12.050;2023-04-01T19:00:54;96323.19;;;7.49;88.96
75008;BME280;63554;48.940;12.050;2023-04-01T19:05:04;96333.28;;;7.53;89.03
75008;BME280;63554;48.940;12.050;2023-04-01T19:09:26;96338.44;;;7.55;88.85
75008;BME280;63554;48.940;12.050;2023-04-01T19:13:34;96344.41;;;7.57;88.83
75008;BME280;63554;48.940;12.050;2023-04-01T19:17:52;96348.38;;;7.55;88.30
75008;BME280;63554;48.940;12.050;2023-04-01T19:22:03;96351.91;;;7.55;88.26
75008;BME280;63554;48.940;12.050;2023-04-01T19:26:21;96351.31;;;7.53;87.80
75008;BME280;63554;48.940;12.050;2023-04-01T19:30:38;96357.50;;;7.53;87.72
75008;BME280;63554;48.940;12.050;2023-04-01T19:34:52;96358.31;;;7.54;87.91
75008;BME280;63554;48.940;12.050;2023-04-01T19:39:09;96358.31;;;7.54;87.78
75008;BME280;63554;48.940;12.050;2023-04-01T19:43:33;96361.81;;;7.55;87.42
75008;BME280;63554;48.940;12.050;2023-04-01T19:47:48;96358.78;;;7.51;87.62
75008;BME280;63554;48.940;12.050;2023-04-01T19:52:00;96367.47;;;7.53;87.76
75008;BME280;63554;48.940;12.050;2023-04-01T19:56:14;96362.13;;;7.46;87.43
75008;BME280;63554;48.940;12.050;2023-04-01T20:00:23;96371.28;;;7.45;87.47
75008;BME280;63554;48.940;12.050;2023-04-01T20:04:31;96378.66;;;7.50;86.90
75008;BME280;63554;48.940;12.050;2023-04-01T20:08:39;96374.34;;;7.49;86.39
75008;BME280;63554;48.940;12.050;2023-04-01T20:12:49;96383.44;;;7.48;86.04
75008;BME280;63554;48.940;12.050;2023-04-01T20:17:02;96397.06;;;7.53;86.03
75008;BME280;63554;48.940;12.050;2023-04-01T20:21:24;96388.63;;;7.49;86.10
75008;BME280;63554;48.940;12.050;2023-04-01T20:25:32;96388.84;;;7.48;86.17
75008;BME280;63554;48.940;12.050;2023-04-01T20:29:46;96390.13;;;7.45;86.46
75008;BME280;63554;48.940;12.050;2023-04-01T20:34:21;96382.84;;;7.46;86.48
75008;BME280;63554;48.940;12.050;2023-04-01T20:38:41;96390.31;;;7.44;
75008;BME280;63554;48.940;12.050;2023-04-01T20:43:10;96398.84;;;7.41;86.41
75008;BME280;63554;48.940;12.050;2023-04-01T20:47:24;96404.47;;;7.39;86.38
75008;BME280;63554;48.940;12.050;2023-04-01T20:51:34;96407.16;;;7.39;86.82
75008;BME280;63554;48.940;12.050;2023-04-01T21:00:31;96411.25;;;7.42;86.60
75008;BME280;63554;48.940;12.050;2023-04-01T21:04:50;96422.03;;;7.42;86.11
75008;BME280;63554;48.940;12.050;2023-04-01T21:09:06;96413.56;;;7.38;86.15
75008;BME280;63554;48.940;12.050;2023-04-01T21:13:24;96425.53;;;7.42;86.48
75008;BME280;63554;48.940;12.050;2023-04-01T21:17:38;96412.75;;;7.38;86.17
75008;BME280;63554;48.940;12.050;2023-04-01T21:22:11;96423.53;;;7.38;85.88
75008;BME280;63554;48.940;12.050;2023-04-01T21:26:23;96419.56;;;7.40;86.02
75008;BME280;63554;48.940;12.050;2023-04-01T21:30:43;96427.03;;;7.38;86.20
75008;BME280;63554;48.940;12.050;2023-04-01T21:34:53;96427.03;;;7.38;86.64
75008;BME280;63554;48.940;12.050;2023-04-01T21:39:10;96425.63;;;7.36;86.33
75008;BME280;63554;48.940;12.050;2023-04-01T21:43:30;96439.06;;;7.36;86.49
75008;BME280;63554;48.940;12.050;2023-04-01T21:48:09;96441.38;;;7.32;86.96
75008;BME280;63554;48.940;12.050;2023-04-01T21:52:54;96441.16;;;7.33;86.70
75008;BME280;63554;48.940;12.050;2023-04-01T21:57:34;96440.31;;;7.33;86.33
75008;BME280;63554;48.940;12.050;2023-04-01T22:02:01;96448.78;;;7.37;86.33
75008;BME280;63554;48.940;12.050;2023-04-01T22:06:14;96446.97;;;7.30;86.73
75008;BME280;63554;48.940;12.050;2023-04-01T22:10:26;96442.66;;;7.29;86.77
75008;BME280;63554;48.940;12.050;2023-04-01T22:14:38;96449.25;;;7.33;86.86
75008;BME280;63554;48.940;12.050;2023-04-01T22:18:46;96454.84;;;7.32;86.56
75008;BME280;63554;48.940;12.050;2023-04-01T22:23:06;96448.63;;;7.31;86.73
75008;BME280;63554;48.940;12.050;2023-04-01T22:27:16;96449.44;;;7.32;86.65
75008;BME280;63554;48.940;12.050;2023-04-01T22:31:26;96442.66;;;7.29;86.74
75008;BME280;63554;48.940;12.050;2023-04-01T22:35:35;96451.75;;;7.28;86.52
75008;BME280;63554;48.940;12.050;2023-04-01T22:39:57;96448.47;;;7.26;86.54
75008;BME280;63554;48.940;12.050;2023-04-01T22:44:02;96454.66;;;7.27;86.32
75008;BME280;63554;48.940;12.050;2023-04-01T22:48:10;96450.56;;;7.24;86.51
75008;BME280;63554;48.940;12.050;2023-04-01T22:52:19;96452.66;;;7.22;86.11
75008;BME280;63554;48.940;12.050;2023-04-01T22:56:28;96460.72;;;7.22;85.88
75008;BME280;63554;48.940;12.050;2023-04-01T23:00:36;96463.41;;;7.22;86.00
75008;BME280;63554;48.940;12.050;2023-04-01T23:04:47;96471.91;;;7.19;86.32
75008;BME280;63554;48.940;12.050;2023-04-01T23:09:08;96472.97;;;7.18;85.78
75008;BME280;63554;48.940;12.050;2023-04-01T23:13:18;96489.94;;;7.19;86.17
75008;BME280;63554;48.940;12.050;2023-04-01T23:17:35;96489.53;;;7.15;85.68
75008;BME280;63554;48.940;12.050;2023-04-01T23:21:42;96498.47;;;7.16;84.74
75008;BME280;63554;48.940;12.050;2023-04-01T23:25:55;96498.22;;;7.17;84.88
75008;BME280;63554;48.940;12.050;2023-04-01T23:30:00;96511.25;;;7.20;84.19